| time (UTC) | temp C | wind direction | speed KPH | gust KPH | rain 1hr cm | rain 24hr cm | rain mn cm | humidity % | barometer mb |
| 20260507010101 | 13 | 245 | 0.0 | 1.6 | 0.00 | 0.41 | 0.41 | 98 | 1012.9 |
| 20260507004601 | 13 | 245 | 0.0 | 0.0 | 0.00 | 0.41 | 0.41 | 98 | 1012.9 |
| 20260507003100 | 13 | 245 | 0.0 | 1.6 | 0.00 | 0.41 | 0.41 | 98 | 1012.6 |
| 20260507001559 | 13 | 245 | 0.0 | 1.6 | 0.00 | 0.41 | 0.41 | 98 | 1013.0 |
| 20260507000058 | 13 | 245 | 0.0 | 1.6 | 0.00 | 0.41 | 0.41 | 98 | 1013.0 |
| 20260506234557 | 13 | 245 | 0.0 | 1.6 | 0.00 | 0.41 | 0.41 | 98 | 1012.9 |
| 20260506233056 | 13 | 245 | 0.0 | 1.6 | 0.00 | 0.41 | 0.41 | 98 | 1012.8 |
| 20260506231556 | 13 | 245 | 0.0 | 1.6 | 0.00 | 0.41 | 0.41 | 98 | 1012.7 |
| 20260506230056 | 13 | 245 | 0.0 | 1.6 | 0.00 | 0.41 | 0.41 | 98 | 1012.5 |
| 20260506224606 | 13 | 245 | 0.0 | 1.6 | 0.00 | 0.41 | 0.41 | 98 | 1012.5 |
| 20260506223053 | 14 | 246 | 0.0 | 1.6 | 0.00 | 0.41 | 0.41 | 98 | 1012.4 |
| 20260506221554 | 14 | 246 | 0.0 | 1.6 | 0.00 | 0.41 | 0.41 | 97 | 1012.3 |
| 20260506220051 | 14 | 246 | 0.0 | 1.6 | 0.00 | 0.41 | 0.41 | 97 | 1012.5 |
| 20260506214607 | 14 | 246 | 0.0 | 1.6 | 0.00 | 0.41 | 0.41 | 97 | 1012.3 |
| 20260506213050 | 14 | 246 | 0.0 | 1.6 | 0.03 | 0.41 | 0.41 | 97 | 1012.4 |
| 20260506211550 | 15 | 242 | 0.0 | 1.6 | 0.10 | 0.41 | 0.41 | 97 | 1012.5 |
| 20260506210051 | 14 | 243 | 0.0 | 1.6 | 0.13 | 0.41 | 0.41 | 97 | 1012.4 |
| 20260506204545 | 15 | 243 | 0.0 | 1.6 | 0.13 | 0.41 | 0.41 | 96 | 1012.7 |
| 20260506203049 | 15 | 244 | 0.0 | 3.2 | 0.10 | 0.38 | 0.38 | 96 | 1012.8 |
| 20260506201543 | 15 | 245 | 0.0 | 1.6 | 0.05 | 0.30 | 0.30 | 94 | 1012.9 |
| 20260506200043 | 15 | 246 | 0.0 | 1.6 | 0.03 | 0.28 | 0.28 | 94 | 1012.8 |
| 20260506194556 | 15 | 246 | 0.0 | 1.6 | 0.03 | 0.28 | 0.28 | 94 | 1013.0 |
| 20260506193038 | 15 | 246 | 0.0 | 1.6 | 0.05 | 0.28 | 0.28 | 94 | 1013.1 |
| 20260506191537 | 15 | 319 | 0.0 | 0.0 | 0.08 | 0.25 | 0.25 | 94 | 1013.2 |
| 20260506190019 | 15 | 305 | 0.0 | 1.6 | 0.10 | 0.25 | 0.25 | 93 | 1013.4 |
| 20260506184525 | 15 | 247 | 0.0 | 1.6 | 0.13 | 0.25 | 0.25 | 93 | 1013.5 |
| 20260506183018 | 15 | 246 | 0.0 | 3.2 | 0.13 | 0.23 | 0.23 | 93 | 1014.0 |
| 20260506181516 | 15 | 244 | 0.0 | 1.6 | 0.10 | 0.18 | 0.18 | 93 | 1013.9 |
| 20260506180023 | 15 | 245 | 0.0 | 1.6 | 0.10 | 0.15 | 0.15 | 93 | 1013.7 |
| 20260506174512 | 15 | 245 | 0.0 | 1.6 | 0.13 | 0.13 | 0.13 | 92 | 1013.9 |
| 20260506173010 | 15 | 243 | 0.0 | 1.6 | 0.10 | 0.10 | 0.10 | 90 | 1014.3 |
| 20260506171512 | 15 | 349 | 0.0 | 1.6 | 0.08 | 0.08 | 0.08 | 89 | 1014.8 |
| 20260506170007 | 16 | 310 | 0.0 | 1.6 | 0.05 | 0.05 | 0.05 | 86 | 1015.0 |
| 20260506164507 | 17 | 304 | 0.0 | 1.6 | 0.00 | 0.00 | 0.00 | 81 | 1014.9 |
| 20260506163008 | 18 | 276 | 0.0 | 1.6 | 0.00 | 0.00 | 0.00 | 78 | 1014.7 |
| 20260506161506 | 18 | 240 | 0.0 | 1.6 | 0.00 | 0.00 | 0.00 | 75 | 1014.7 |
| 20260506160003 | 18 | 140 | 0.0 | 1.6 | 0.00 | 0.00 | 0.00 | 74 | 1015.1 |
| 20260506154503 | 18 | 310 | 0.0 | 6.4 | 0.00 | 0.00 | 0.00 | 74 | 1015.4 |
| 20260506153002 | 18 | 290 | 0.0 | 3.2 | 0.00 | 0.00 | 0.00 | 73 | 1015.1 |
| 20260506151502 | 19 | 212 | 0.0 | 1.6 | 0.00 | 0.00 | 0.00 | 72 | 1015.1 |
| 20260506150002 | 19 | 280 | 0.0 | 1.6 | 0.00 | 0.00 | 0.00 | 72 | 1015.2 |
| 20260506144605 | 19 | 231 | 0.0 | 3.2 | 0.00 | 0.00 | 0.00 | 72 | 1015.2 |
| 20260506143100 | 19 | 246 | 0.0 | 1.6 | 0.00 | 0.00 | 0.00 | 73 | 1015.4 |
| 20260506141604 | 19 | 136 | 0.0 | 3.2 | 0.00 | 0.00 | 0.00 | 72 | 1015.5 |
| 20260506140112 | 18 | 289 | 0.0 | 1.6 | 0.00 | 0.00 | 0.00 | 75 | 1015.5 |
| 20260506134557 | 18 | 289 | 0.0 | 3.2 | 0.00 | 0.00 | 0.00 | 75 | 1015.2 |
| 20260506133059 | 18 | 237 | 0.0 | 3.2 | 0.00 | 0.00 | 0.00 | 77 | 1015.3 |
| 20260506131549 | 17 | 243 | 0.0 | 1.6 | 0.00 | 0.00 | 0.00 | 79 | 1015.5 |
| 20260506130046 | 17 | 223 | 0.0 | 1.6 | 0.00 | 0.00 | 0.00 | 80 | 1015.3 |
| 20260506124543 | 16 | 222 | 0.0 | 1.6 | 0.00 | 0.00 | 0.00 | 82 | 1015.7 |
| 20260506123043 | 16 | 215 | 0.0 | 1.6 | 0.00 | 0.00 | 0.00 | 82 | 1016.2 |
| 20260506121542 | 16 | 219 | 0.0 | 3.2 | 0.00 | 0.00 | 0.00 | 83 | 1015.9 |
| 20260506120045 | 15 | 206 | 0.0 | 1.6 | 0.00 | 0.00 | 0.00 | 85 | 1015.9 |
| 20260506114540 | 15 | 205 | 0.0 | 1.6 | 0.00 | 0.00 | 0.00 | 86 | 1015.9 |
| 20260506113047 | 15 | 258 | 0.0 | 3.2 | 0.00 | 0.00 | 0.00 | 86 | 1016.0 |
| 20260506111540 | 15 | 221 | 0.0 | 1.6 | 0.00 | 0.00 | 0.00 | 87 | 1016.1 |
| 20260506110039 | 14 | 195 | 0.0 | 0.0 | 0.00 | 0.00 | 0.00 | 89 | 1016.2 |
| 20260506104545 | 13 | 195 | 0.0 | 0.0 | 0.00 | 0.00 | 0.00 | 89 | 1016.1 |
| 20260506103041 | 13 | 195 | 0.0 | 0.0 | 0.00 | 0.00 | 0.00 | 89 | 1016.1 |
| 20260506101546 | 13 | 195 | 0.0 | 0.0 | 0.00 | 0.00 | 0.00 | 89 | 1016.0 |
| 20260506100036 | 13 | 195 | 0.0 | 0.0 | 0.00 | 0.00 | 0.00 | 89 | 1015.8 |
| 20260506094535 | 13 | 195 | 0.0 | 0.0 | 0.00 | 0.00 | 0.00 | 89 | 1015.8 |
| 20260506093033 | 13 | 164 | 0.0 | 0.0 | 0.00 | 0.00 | 0.00 | 89 | 1015.8 |
| 20260506091533 | 13 | 164 | 0.0 | 1.6 | 0.00 | 0.00 | 0.00 | 88 | 1015.9 |
| 20260506090030 | 13 | 162 | 0.0 | 0.0 | 0.00 | 0.00 | 0.00 | 87 | 1015.9 |
| 20260506084537 | 13 | 162 | 0.0 | 0.0 | 0.00 | 0.00 | 0.00 | 87 | 1015.9 |
| 20260506083031 | 14 | 144 | 0.0 | 1.6 | 0.00 | 0.00 | 0.00 | 86 | 1016.1 |
| 20260506081528 | 14 | 144 | 0.0 | 1.6 | 0.00 | 0.00 | 0.00 | 86 | 1015.9 |
| 20260506073023 | 14 | 118 | 0.0 | 1.6 | 0.00 | 0.00 | 0.00 | 84 | 1016.0 |
| 20260506071522 | 14 | 116 | 0.0 | 1.6 | 0.00 | 0.00 | 0.00 | 84 | 1016.1 |
| 20260506061517 | 15 | 283 | 0.0 | 1.6 | 0.00 | 0.00 | 0.00 | 82 | 1015.9 |
| 20260506044503 | 16 | 245 | 0.0 | 1.6 | 0.00 | 0.00 | 0.00 | 77 | 1016.3 |
| 20260506043003 | 16 | 238 | 0.0 | 1.6 | 0.00 | 0.00 | 0.00 | 76 | 1016.3 |
| 20260506041559 | 16 | 239 | 0.0 | 3.2 | 0.00 | 0.00 | 0.00 | 75 | 1016.2 |
| 20260506040056 | 16 | 237 | 0.0 | 1.6 | 0.00 | 0.00 | 0.00 | 74 | 1016.2 |
| 20260506034556 | 17 | 84 | 0.0 | 1.6 | 0.00 | 0.00 | 0.00 | 73 | 1016.2 |
| 20260506033055 | 17 | 226 | 0.0 | 1.6 | 0.00 | 0.00 | 0.00 | 71 | 1016.3 |
| 20260506031555 | 17 | 269 | 0.0 | 1.6 | 0.00 | 0.00 | 0.00 | 71 | 1016.1 |
| 20260506030058 | 17 | 148 | 0.0 | 3.2 | 0.00 | 0.00 | 0.00 | 71 | 1016.2 |
| 20260506024558 | 17 | 164 | 0.0 | 3.2 | 0.00 | 0.00 | 0.00 | 70 | 1016.2 |
| 20260506023059 | 17 | 313 | 0.0 | 3.2 | 0.00 | 0.00 | 0.00 | 71 | 1016.2 |
| 20260506021606 | 17 | 268 | 0.0 | 1.6 | 0.00 | 0.00 | 0.00 | 71 | 1016.2 |
| 20260506020052 | 17 | 268 | 0.0 | 1.6 | 0.00 | 0.00 | 0.00 | 70 | 1016.1 |
| 20260506014552 | 17 | 266 | 0.0 | 1.6 | 0.00 | 0.00 | 0.00 | 69 | 1016.1 |
| 20260506013051 | 17 | 260 | 0.0 | 1.6 | 0.00 | 0.00 | 0.00 | 68 | 1015.8 |
| 20260506011551 | 17 | 214 | 0.0 | 1.6 | 0.00 | 0.00 | 0.00 | 67 | 1015.7 |